sensor_id;sensor_type;location;lat;lon;timestamp;P1;durP1;ratioP1;P2;durP2;ratioP2
13303;SDS011;6720;51.958;4.540;2022-12-29T00:01:13;3.07;;;2.57;;
13303;SDS011;6720;51.958;4.540;2022-12-29T00:03:38;3.13;;;2.87;;
13303;SDS011;6720;51.958;4.540;2022-12-29T00:06:04;3.87;;;2.47;;
13303;SDS011;6720;51.958;4.540;2022-12-29T00:08:29;2.70;;;2.50;;
13303;SDS011;6720;51.958;4.540;2022-12-29T00:11:14;2.87;;;2.60;;
13303;SDS011;6720;51.958;4.540;2022-12-29T00:13:41;2.90;;;2.70;;
13303;SDS011;6720;51.958;4.540;2022-12-29T00:16:26;4.13;;;2.73;;
13303;SDS011;6720;51.958;4.540;2022-12-29T00:18:52;3.30;;;2.60;;
13303;SDS011;6720;51.958;4.540;2022-12-29T00:21:18;2.70;;;2.43;;
13303;SDS011;6720;51.958;4.540;2022-12-29T00:24:04;3.60;;;2.20;;
13303;SDS011;6720;51.958;4.540;2022-12-29T00:26:56;2.87;;;2.60;;
13303;SDS011;6720;51.958;4.540;2022-12-29T00:29:51;3.37;;;2.30;;
13303;SDS011;6720;51.958;4.540;2022-12-29T00:32:35;3.87;;;2.20;;
13303;SDS011;6720;51.958;4.540;2022-12-29T00:35:29;4.77;;;2.50;;
13303;SDS011;6720;51.958;4.540;2022-12-29T00:38:04;2.43;;;2.27;;
13303;SDS011;6720;51.958;4.540;2022-12-29T00:40:49;3.60;;;2.50;;
13303;SDS011;6720;51.958;4.540;2022-12-29T00:43:35;3.40;;;2.43;;
13303;SDS011;6720;51.958;4.540;2022-12-29T00:46:19;3.00;;;2.67;;
13303;SDS011;6720;51.958;4.540;2022-12-29T00:48:45;2.60;;;2.40;;
13303;SDS011;6720;51.958;4.540;2022-12-29T00:51:29;2.47;;;2.13;;
13303;SDS011;6720;51.958;4.540;2022-12-29T00:53:55;3.57;;;2.97;;
13303;SDS011;6720;51.958;4.540;2022-12-29T00:56:20;3.73;;;2.90;;
13303;SDS011;6720;51.958;4.540;2022-12-29T00:58:46;3.43;;;2.50;;
13303;SDS011;6720;51.958;4.540;2022-12-29T01:01:11;4.27;;;3.13;;
13303;SDS011;6720;51.958;4.540;2022-12-29T01:03:37;2.43;;;2.23;;
13303;SDS011;6720;51.958;4.540;2022-12-29T01:06:04;3.67;;;3.00;;
13303;SDS011;6720;51.958;4.540;2022-12-29T01:08:31;3.30;;;3.00;;
13303;SDS011;6720;51.958;4.540;2022-12-29T01:11:07;3.30;;;2.70;;
13303;SDS011;6720;51.958;4.540;2022-12-29T01:13:36;3.30;;;3.00;;
13303;SDS011;6720;51.958;4.540;2022-12-29T01:16:07;3.87;;;3.40;;
13303;SDS011;6720;51.958;4.540;2022-12-29T01:18:33;5.10;;;3.20;;
13303;SDS011;6720;51.958;4.540;2022-12-29T01:20:59;4.63;;;3.50;;
13303;SDS011;6720;51.958;4.540;2022-12-29T01:23:25;3.37;;;3.07;;
13303;SDS011;6720;51.958;4.540;2022-12-29T01:25:51;4.37;;;3.20;;
13303;SDS011;6720;51.958;4.540;2022-12-29T01:28:16;3.70;;;2.70;;
13303;SDS011;6720;51.958;4.540;2022-12-29T01:30:41;2.93;;;2.50;;
13303;SDS011;6720;51.958;4.540;2022-12-29T01:33:07;3.23;;;2.40;;
13303;SDS011;6720;51.958;4.540;2022-12-29T01:35:32;4.17;;;2.73;;
13303;SDS011;6720;51.958;4.540;2022-12-29T01:37:58;3.97;;;2.93;;
13303;SDS011;6720;51.958;4.540;2022-12-29T01:40:23;3.77;;;3.33;;
13303;SDS011;6720;51.958;4.540;2022-12-29T01:42:49;3.70;;;3.33;;
13303;SDS011;6720;51.958;4.540;2022-12-29T01:45:15;4.67;;;3.80;;
13303;SDS011;6720;51.958;4.540;2022-12-29T01:50:19;3.97;;;2.70;;
13303;SDS011;6720;51.958;4.540;2022-12-29T01:53:00;3.00;;;2.60;;
13303;SDS011;6720;51.958;4.540;2022-12-29T01:55:29;4.10;;;2.27;;
13303;SDS011;6720;51.958;4.540;2022-12-29T01:57:59;7.97;;;2.20;;
13303;SDS011;6720;51.958;4.540;2022-12-29T02:00:27;2.87;;;2.20;;
13303;SDS011;6720;51.958;4.540;2022-12-29T02:02:52;5.13;;;2.03;;
13303;SDS011;6720;51.958;4.540;2022-12-29T02:07:56;3.17;;;2.00;;
13303;SDS011;6720;51.958;4.540;2022-12-29T02:10:23;4.67;;;1.90;;
13303;SDS011;6720;51.958;4.540;2022-12-29T02:12:50;5.30;;;1.93;;
13303;SDS011;6720;51.958;4.540;2022-12-29T02:15:17;5.43;;;2.50;;
13303;SDS011;6720;51.958;4.540;2022-12-29T02:21:03;4.67;;;2.07;;
13303;SDS011;6720;51.958;4.540;2022-12-29T02:23:56;4.57;;;2.03;;
13303;SDS011;6720;51.958;4.540;2022-12-29T02:26:55;4.30;;;1.97;;
13303;SDS011;6720;51.958;4.540;2022-12-29T02:37:25;7.57;;;3.50;;
13303;SDS011;6720;51.958;4.540;2022-12-29T02:42:49;8.47;;;3.47;;
13303;SDS011;6720;51.958;4.540;2022-12-29T02:50:28;6.20;;;2.40;;
13303;SDS011;6720;51.958;4.540;2022-12-29T02:53:17;6.83;;;2.20;;
13303;SDS011;6720;51.958;4.540;2022-12-29T02:56:04;8.07;;;2.60;;
13303;SDS011;6720;51.958;4.540;2022-12-29T02:58:33;5.83;;;2.40;;
13303;SDS011;6720;51.958;4.540;2022-12-29T03:04:31;8.70;;;2.70;;
13303;SDS011;6720;51.958;4.540;2022-12-29T03:10:01;6.97;;;2.40;;
13303;SDS011;6720;51.958;4.540;2022-12-29T03:12:55;8.73;;;2.40;;
13303;SDS011;6720;51.958;4.540;2022-12-29T03:16:18;6.90;;;2.70;;
13303;SDS011;6720;51.958;4.540;2022-12-29T03:19:02;7.43;;;2.70;;
13303;SDS011;6720;51.958;4.540;2022-12-29T03:21:39;7.47;;;2.70;;
13303;SDS011;6720;51.958;4.540;2022-12-29T03:24:27;7.27;;;2.73;;
13303;SDS011;6720;51.958;4.540;2022-12-29T03:26:57;5.30;;;2.57;;
13303;SDS011;6720;51.958;4.540;2022-12-29T03:29:24;4.63;;;2.00;;
13303;SDS011;6720;51.958;4.540;2022-12-29T03:31:52;6.13;;;2.37;;
13303;SDS011;6720;51.958;4.540;2022-12-29T03:34:20;5.67;;;2.10;;
13303;SDS011;6720;51.958;4.540;2022-12-29T03:36:53;5.70;;;2.53;;
13303;SDS011;6720;51.958;4.540;2022-12-29T03:39:24;5.33;;;2.27;;
13303;SDS011;6720;51.958;4.540;2022-12-29T03:41:51;4.23;;;2.10;;
13303;SDS011;6720;51.958;4.540;2022-12-29T03:44:30;5.03;;;2.10;;
13303;SDS011;6720;51.958;4.540;2022-12-29T03:46:57;5.10;;;2.40;;
13303;SDS011;6720;51.958;4.540;2022-12-29T03:49:23;4.63;;;2.00;;
13303;SDS011;6720;51.958;4.540;2022-12-29T03:51:48;7.97;;;2.03;;
13303;SDS011;6720;51.958;4.540;2022-12-29T03:54:14;7.13;;;2.40;;
13303;SDS011;6720;51.958;4.540;2022-12-29T03:56:39;6.40;;;2.23;;
13303;SDS011;6720;51.958;4.540;2022-12-29T03:59:04;8.87;;;2.53;;
13303;SDS011;6720;51.958;4.540;2022-12-29T04:01:30;8.50;;;2.60;;
13303;SDS011;6720;51.958;4.540;2022-12-29T04:03:55;8.77;;;2.67;;
13303;SDS011;6720;51.958;4.540;2022-12-29T04:06:20;9.20;;;3.07;;
13303;SDS011;6720;51.958;4.540;2022-12-29T04:08:46;10.70;;;2.97;;
13303;SDS011;6720;51.958;4.540;2022-12-29T04:11:11;10.00;;;3.00;;
13303;SDS011;6720;51.958;4.540;2022-12-29T04:13:37;9.30;;;3.10;;
13303;SDS011;6720;51.958;4.540;2022-12-29T04:16:05;7.90;;;2.70;;
13303;SDS011;6720;51.958;4.540;2022-12-29T04:18:31;7.90;;;3.50;;
13303;SDS011;6720;51.958;4.540;2022-12-29T04:20:57;6.73;;;2.53;;
13303;SDS011;6720;51.958;4.540;2022-12-29T04:23:25;11.33;;;2.47;;
13303;SDS011;6720;51.958;4.540;2022-12-29T04:25:51;11.03;;;2.73;;
13303;SDS011;6720;51.958;4.540;2022-12-29T04:28:16;9.23;;;2.60;;
13303;SDS011;6720;51.958;4.540;2022-12-29T04:30:42;12.50;;;2.87;;
13303;SDS011;6720;51.958;4.540;2022-12-29T04:33:09;11.23;;;2.70;;
13303;SDS011;6720;51.958;4.540;2022-12-29T04:35:35;8.37;;;2.93;;
13303;SDS011;6720;51.958;4.540;2022-12-29T04:38:00;10.60;;;3.40;;
13303;SDS011;6720;51.958;4.540;2022-12-29T04:40:26;11.07;;;3.03;;
13303;SDS011;6720;51.958;4.540;2022-12-29T04:42:51;10.37;;;3.70;;
13303;SDS011;6720;51.958;4.540;2022-12-29T04:45:17;10.80;;;3.50;;
13303;SDS011;6720;51.958;4.540;2022-12-29T04:47:42;10.17;;;2.93;;
13303;SDS011;6720;51.958;4.540;2022-12-29T04:50:07;10.03;;;3.70;;
13303;SDS011;6720;51.958;4.540;2022-12-29T04:52:33;10.63;;;3.00;;
13303;SDS011;6720;51.958;4.540;2022-12-29T04:54:59;10.00;;;3.07;;
13303;SDS011;6720;51.958;4.540;2022-12-29T04:57:25;7.87;;;3.40;;
13303;SDS011;6720;51.958;4.540;2022-12-29T04:59:50;11.40;;;2.90;;
13303;SDS011;6720;51.958;4.540;2022-12-29T05:02:16;9.03;;;2.97;;
13303;SDS011;6720;51.958;4.540;2022-12-29T05:04:42;7.47;;;2.67;;
13303;SDS011;6720;51.958;4.540;2022-12-29T05:07:07;7.60;;;3.23;;
13303;SDS011;6720;51.958;4.540;2022-12-29T05:09:33;14.07;;;3.63;;
13303;SDS011;6720;51.958;4.540;2022-12-29T05:11:59;16.47;;;4.20;;
13303;SDS011;6720;51.958;4.540;2022-12-29T05:14:24;8.83;;;3.83;;
13303;SDS011;6720;51.958;4.540;2022-12-29T05:16:50;9.67;;;3.27;;
13303;SDS011;6720;51.958;4.540;2022-12-29T05:19:15;13.97;;;3.40;;
13303;SDS011;6720;51.958;4.540;2022-12-29T05:21:41;12.83;;;3.83;;
13303;SDS011;6720;51.958;4.540;2022-12-29T05:24:07;11.67;;;3.37;;
13303;SDS011;6720;51.958;4.540;2022-12-29T05:26:32;12.77;;;3.30;;
13303;SDS011;6720;51.958;4.540;2022-12-29T05:28:58;16.47;;;3.50;;
13303;SDS011;6720;51.958;4.540;2022-12-29T05:31:24;12.87;;;4.20;;
13303;SDS011;6720;51.958;4.540;2022-12-29T05:33:50;12.40;;;3.50;;
13303;SDS011;6720;51.958;4.540;2022-12-29T05:36:16;17.67;;;3.80;;
13303;SDS011;6720;51.958;4.540;2022-12-29T05:38:41;12.53;;;3.67;;
13303;SDS011;6720;51.958;4.540;2022-12-29T05:41:06;15.63;;;3.47;;
13303;SDS011;6720;51.958;4.540;2022-12-29T05:43:32;12.80;;;3.70;;
13303;SDS011;6720;51.958;4.540;2022-12-29T05:45:57;13.57;;;3.27;;
13303;SDS011;6720;51.958;4.540;2022-12-29T05:48:23;12.60;;;3.67;;
13303;SDS011;6720;51.958;4.540;2022-12-29T05:50:48;12.50;;;3.53;;
13303;SDS011;6720;51.958;4.540;2022-12-29T05:53:15;16.37;;;3.57;;
13303;SDS011;6720;51.958;4.540;2022-12-29T05:55:41;15.80;;;3.80;;
13303;SDS011;6720;51.958;4.540;2022-12-29T05:58:06;14.83;;;4.10;;
13303;SDS011;6720;51.958;4.540;2022-12-29T06:00:31;18.27;;;4.10;;
13303;SDS011;6720;51.958;4.540;2022-12-29T06:02:57;11.80;;;3.80;;
13303;SDS011;6720;51.958;4.540;2022-12-29T06:05:22;10.43;;;3.50;;
13303;SDS011;6720;51.958;4.540;2022-12-29T06:07:48;14.83;;;3.30;;
13303;SDS011;6720;51.958;4.540;2022-12-29T06:10:13;12.63;;;3.70;;
13303;SDS011;6720;51.958;4.540;2022-12-29T06:12:39;15.10;;;4.70;;
13303;SDS011;6720;51.958;4.540;2022-12-29T06:15:04;12.80;;;3.97;;
13303;SDS011;6720;51.958;4.540;2022-12-29T06:17:30;13.93;;;3.60;;
13303;SDS011;6720;51.958;4.540;2022-12-29T06:19:55;14.03;;;3.60;;
13303;SDS011;6720;51.958;4.540;2022-12-29T06:22:21;15.30;;;3.63;;
13303;SDS011;6720;51.958;4.540;2022-12-29T06:24:46;13.53;;;3.70;;
13303;SDS011;6720;51.958;4.540;2022-12-29T06:27:12;12.10;;;3.80;;
13303;SDS011;6720;51.958;4.540;2022-12-29T06:29:38;13.50;;;3.53;;
13303;SDS011;6720;51.958;4.540;2022-12-29T06:32:05;10.47;;;3.37;;
13303;SDS011;6720;51.958;4.540;2022-12-29T06:34:31;15.40;;;4.10;;
13303;SDS011;6720;51.958;4.540;2022-12-29T06:36:56;12.60;;;3.03;;
13303;SDS011;6720;51.958;4.540;2022-12-29T06:39:22;11.17;;;3.03;;
13303;SDS011;6720;51.958;4.540;2022-12-29T06:41:47;14.73;;;3.30;;
13303;SDS011;6720;51.958;4.540;2022-12-29T06:44:13;14.33;;;3.67;;
13303;SDS011;6720;51.958;4.540;2022-12-29T06:46:38;11.97;;;3.43;;
13303;SDS011;6720;51.958;4.540;2022-12-29T06:49:03;12.83;;;3.37;;
13303;SDS011;6720;51.958;4.540;2022-12-29T06:51:29;11.03;;;3.00;;
13303;SDS011;6720;51.958;4.540;2022-12-29T06:53:54;8.17;;;2.53;;
13303;SDS011;6720;51.958;4.540;2022-12-29T06:56:20;8.43;;;2.70;;
13303;SDS011;6720;51.958;4.540;2022-12-29T06:58:45;9.50;;;3.00;;
13303;SDS011;6720;51.958;4.540;2022-12-29T07:01:11;8.73;;;3.20;;
13303;SDS011;6720;51.958;4.540;2022-12-29T07:03:36;11.30;;;3.33;;
13303;SDS011;6720;51.958;4.540;2022-12-29T07:06:01;6.87;;;2.80;;
13303;SDS011;6720;51.958;4.540;2022-12-29T07:08:27;8.80;;;3.00;;
13303;SDS011;6720;51.958;4.540;2022-12-29T07:10:52;10.53;;;3.57;;
13303;SDS011;6720;51.958;4.540;2022-12-29T07:13:18;10.87;;;3.87;;
13303;SDS011;6720;51.958;4.540;2022-12-29T07:15:43;10.87;;;4.33;;
13303;SDS011;6720;51.958;4.540;2022-12-29T07:18:09;12.50;;;3.47;;
13303;SDS011;6720;51.958;4.540;2022-12-29T07:20:34;15.30;;;3.37;;
13303;SDS011;6720;51.958;4.540;2022-12-29T07:22:59;12.53;;;3.50;;
13303;SDS011;6720;51.958;4.540;2022-12-29T07:25:25;8.60;;;3.37;;
13303;SDS011;6720;51.958;4.540;2022-12-29T07:27:50;9.87;;;2.83;;
13303;SDS011;6720;51.958;4.540;2022-12-29T07:30:16;9.03;;;2.97;;
13303;SDS011;6720;51.958;4.540;2022-12-29T07:32:41;14.07;;;3.20;;
13303;SDS011;6720;51.958;4.540;2022-12-29T07:35:07;13.60;;;3.20;;
13303;SDS011;6720;51.958;4.540;2022-12-29T07:37:33;10.60;;;3.33;;
13303;SDS011;6720;51.958;4.540;2022-12-29T07:39:59;13.60;;;3.17;;
13303;SDS011;6720;51.958;4.540;2022-12-29T07:42:25;11.57;;;3.13;;
13303;SDS011;6720;51.958;4.540;2022-12-29T07:44:50;12.60;;;3.10;;
13303;SDS011;6720;51.958;4.540;2022-12-29T07:47:16;13.07;;;4.03;;
13303;SDS011;6720;51.958;4.540;2022-12-29T07:49:41;12.53;;;3.40;;
13303;SDS011;6720;51.958;4.540;2022-12-29T07:52:07;15.53;;;3.67;;
13303;SDS011;6720;51.958;4.540;2022-12-29T07:54:32;16.20;;;3.93;;
13303;SDS011;6720;51.958;4.540;2022-12-29T07:56:59;13.10;;;3.27;;
13303;SDS011;6720;51.958;4.540;2022-12-29T07:59:25;12.30;;;3.60;;
13303;SDS011;6720;51.958;4.540;2022-12-29T08:01:51;12.60;;;3.33;;
13303;SDS011;6720;51.958;4.540;2022-12-29T08:04:17;14.97;;;3.63;;
13303;SDS011;6720;51.958;4.540;2022-12-29T08:06:42;10.37;;;3.40;;
13303;SDS011;6720;51.958;4.540;2022-12-29T08:09:08;14.03;;;3.63;;
13303;SDS011;6720;51.958;4.540;2022-12-29T08:11:33;14.30;;;3.87;;
13303;SDS011;6720;51.958;4.540;2022-12-29T08:13:59;15.77;;;3.60;;
13303;SDS011;6720;51.958;4.540;2022-12-29T08:16:24;10.03;;;3.10;;
13303;SDS011;6720;51.958;4.540;2022-12-29T08:18:50;13.77;;;3.80;;
13303;SDS011;6720;51.958;4.540;2022-12-29T08:21:15;14.63;;;3.63;;
13303;SDS011;6720;51.958;4.540;2022-12-29T08:23:40;10.47;;;3.33;;
13303;SDS011;6720;51.958;4.540;2022-12-29T08:26:06;10.77;;;3.60;;
13303;SDS011;6720;51.958;4.540;2022-12-29T08:28:32;14.77;;;4.00;;
13303;SDS011;6720;51.958;4.540;2022-12-29T08:30:58;13.53;;;3.63;;
13303;SDS011;6720;51.958;4.540;2022-12-29T08:33:25;14.70;;;3.30;;
13303;SDS011;6720;51.958;4.540;2022-12-29T08:35:50;12.43;;;3.60;;
13303;SDS011;6720;51.958;4.540;2022-12-29T08:38:16;9.73;;;3.00;;
13303;SDS011;6720;51.958;4.540;2022-12-29T08:40:42;13.53;;;3.87;;
13303;SDS011;6720;51.958;4.540;2022-12-29T08:43:08;12.97;;;3.50;;
13303;SDS011;6720;51.958;4.540;2022-12-29T08:45:34;15.17;;;3.40;;
13303;SDS011;6720;51.958;4.540;2022-12-29T08:47:59;13.03;;;4.40;;
13303;SDS011;6720;51.958;4.540;2022-12-29T08:50:25;16.67;;;3.63;;
13303;SDS011;6720;51.958;4.540;2022-12-29T08:52:50;12.37;;;3.60;;
13303;SDS011;6720;51.958;4.540;2022-12-29T08:55:16;14.13;;;4.50;;
13303;SDS011;6720;51.958;4.540;2022-12-29T08:57:41;13.30;;;3.80;;
13303;SDS011;6720;51.958;4.540;2022-12-29T09:00:07;16.43;;;4.20;;
13303;SDS011;6720;51.958;4.540;2022-12-29T09:02:33;12.77;;;3.77;;
13303;SDS011;6720;51.958;4.540;2022-12-29T09:04:58;15.40;;;3.60;;
13303;SDS011;6720;51.958;4.540;2022-12-29T09:07:25;17.27;;;4.60;;
13303;SDS011;6720;51.958;4.540;2022-12-29T09:09:50;12.53;;;4.57;;
13303;SDS011;6720;51.958;4.540;2022-12-29T09:12:17;13.97;;;4.50;;
13303;SDS011;6720;51.958;4.540;2022-12-29T09:14:43;10.30;;;3.47;;
13303;SDS011;6720;51.958;4.540;2022-12-29T09:17:09;10.60;;;4.40;;
13303;SDS011;6720;51.958;4.540;2022-12-29T09:19:54;14.07;;;4.40;;
13303;SDS011;6720;51.958;4.540;2022-12-29T09:22:20;17.97;;;4.60;;
13303;SDS011;6720;51.958;4.540;2022-12-29T09:24:45;12.27;;;3.80;;
13303;SDS011;6720;51.958;4.540;2022-12-29T09:27:10;13.13;;;4.03;;
13303;SDS011;6720;51.958;4.540;2022-12-29T09:29:36;14.00;;;4.97;;
13303;SDS011;6720;51.958;4.540;2022-12-29T09:32:01;11.73;;;4.13;;
13303;SDS011;6720;51.958;4.540;2022-12-29T09:34:27;10.00;;;3.87;;
13303;SDS011;6720;51.958;4.540;2022-12-29T09:36:52;11.13;;;4.50;;
13303;SDS011;6720;51.958;4.540;2022-12-29T09:39:18;12.57;;;4.13;;
13303;SDS011;6720;51.958;4.540;2022-12-29T09:41:50;11.93;;;3.77;;
13303;SDS011;6720;51.958;4.540;2022-12-29T09:44:24;15.03;;;4.27;;
13303;SDS011;6720;51.958;4.540;2022-12-29T09:46:54;14.60;;;4.13;;
13303;SDS011;6720;51.958;4.540;2022-12-29T09:49:33;12.87;;;4.13;;
13303;SDS011;6720;51.958;4.540;2022-12-29T09:52:15;14.70;;;4.63;;
13303;SDS011;6720;51.958;4.540;2022-12-29T09:55:05;12.23;;;4.17;;
13303;SDS011;6720;51.958;4.540;2022-12-29T09:58:00;13.87;;;4.13;;
13303;SDS011;6720;51.958;4.540;2022-12-29T10:01:02;16.07;;;4.33;;
13303;SDS011;6720;51.958;4.540;2022-12-29T10:09:13;18.20;;;5.10;;
13303;SDS011;6720;51.958;4.540;2022-12-29T10:20:10;18.00;;;5.07;;
13303;SDS011;6720;51.958;4.540;2022-12-29T10:23:18;24.03;;;5.10;;
13303;SDS011;6720;51.958;4.540;2022-12-29T10:25:41;18.03;;;5.13;;
13303;SDS011;6720;51.958;4.540;2022-12-29T10:28:51;15.93;;;4.77;;
13303;SDS011;6720;51.958;4.540;2022-12-29T10:31:15;24.10;;;5.33;;
13303;SDS011;6720;51.958;4.540;2022-12-29T10:33:46;21.00;;;6.20;;
13303;SDS011;6720;51.958;4.540;2022-12-29T10:36:17;27.43;;;5.83;;
13303;SDS011;6720;51.958;4.540;2022-12-29T10:38:48;22.40;;;5.93;;
13303;SDS011;6720;51.958;4.540;2022-12-29T10:41:26;26.53;;;5.90;;
13303;SDS011;6720;51.958;4.540;2022-12-29T10:43:59;20.80;;;5.37;;
13303;SDS011;6720;51.958;4.540;2022-12-29T10:46:30;22.07;;;6.10;;
13303;SDS011;6720;51.958;4.540;2022-12-29T10:48:59;23.60;;;6.10;;
13303;SDS011;6720;51.958;4.540;2022-12-29T10:51:30;24.53;;;5.57;;
13303;SDS011;6720;51.958;4.540;2022-12-29T10:54:05;21.70;;;5.47;;
13303;SDS011;6720;51.958;4.540;2022-12-29T10:57:01;18.77;;;5.10;;
13303;SDS011;6720;51.958;4.540;2022-12-29T10:59:31;23.10;;;6.13;;
13303;SDS011;6720;51.958;4.540;2022-12-29T11:04:40;25.30;;;6.27;;
13303;SDS011;6720;51.958;4.540;2022-12-29T11:07:07;24.70;;;5.93;;
13303;SDS011;6720;51.958;4.540;2022-12-29T11:09:35;23.50;;;5.73;;
13303;SDS011;6720;51.958;4.540;2022-12-29T11:17:46;24.40;;;6.87;;
13303;SDS011;6720;51.958;4.540;2022-12-29T11:20:35;21.80;;;5.17;;
13303;SDS011;6720;51.958;4.540;2022-12-29T11:23:03;29.40;;;6.00;;
13303;SDS011;6720;51.958;4.540;2022-12-29T11:25:30;29.93;;;7.37;;
13303;SDS011;6720;51.958;4.540;2022-12-29T11:30:24;30.17;;;7.23;;
13303;SDS011;6720;51.958;4.540;2022-12-29T11:32:52;25.30;;;6.13;;
13303;SDS011;6720;51.958;4.540;2022-12-29T11:35:35;25.37;;;6.70;;
13303;SDS011;6720;51.958;4.540;2022-12-29T11:38:06;21.97;;;5.27;;
13303;SDS011;6720;51.958;4.540;2022-12-29T11:40:46;18.13;;;4.83;;
13303;SDS011;6720;51.958;4.540;2022-12-29T11:43:23;23.80;;;4.70;;
13303;SDS011;6720;51.958;4.540;2022-12-29T11:45:58;22.77;;;5.43;;
13303;SDS011;6720;51.958;4.540;2022-12-29T11:48:26;15.93;;;4.53;;
13303;SDS011;6720;51.958;4.540;2022-12-29T11:50:57;19.13;;;4.83;;
13303;SDS011;6720;51.958;4.540;2022-12-29T11:53:27;20.57;;;5.43;;
13303;SDS011;6720;51.958;4.540;2022-12-29T11:56:00;30.87;;;6.17;;
13303;SDS011;6720;51.958;4.540;2022-12-29T11:58:31;24.77;;;5.70;;
13303;SDS011;6720;51.958;4.540;2022-12-29T12:01:00;23.57;;;4.70;;
13303;SDS011;6720;51.958;4.540;2022-12-29T12:03:31;19.40;;;4.87;;
13303;SDS011;6720;51.958;4.540;2022-12-29T12:06:02;17.53;;;4.20;;
13303;SDS011;6720;51.958;4.540;2022-12-29T12:11:24;20.73;;;5.30;;
13303;SDS011;6720;51.958;4.540;2022-12-29T12:16:59;19.53;;;4.90;;
13303;SDS011;6720;51.958;4.540;2022-12-29T12:19:34;14.93;;;4.17;;
13303;SDS011;6720;51.958;4.540;2022-12-29T12:22:23;14.70;;;3.20;;
13303;SDS011;6720;51.958;4.540;2022-12-29T12:27:36;11.70;;;3.60;;
13303;SDS011;6720;51.958;4.540;2022-12-29T12:35:10;12.87;;;4.10;;
13303;SDS011;6720;51.958;4.540;2022-12-29T12:45:59;19.17;;;4.70;;
13303;SDS011;6720;51.958;4.540;2022-12-29T12:56:27;16.23;;;4.27;;
13303;SDS011;6720;51.958;4.540;2022-12-29T13:11:04;14.40;;;4.77;;
13303;SDS011;6720;51.958;4.540;2022-12-29T13:21:41;12.90;;;4.00;;
13303;SDS011;6720;51.958;4.540;2022-12-29T13:24:18;14.47;;;3.63;;
13303;SDS011;6720;51.958;4.540;2022-12-29T13:27:27;17.23;;;4.70;;
13303;SDS011;6720;51.958;4.540;2022-12-29T13:32:33;16.43;;;4.67;;
13303;SDS011;6720;51.958;4.540;2022-12-29T13:35:28;10.93;;;4.17;;
13303;SDS011;6720;51.958;4.540;2022-12-29T13:38:22;10.60;;;4.10;;
13303;SDS011;6720;51.958;4.540;2022-12-29T13:40:59;9.83;;;3.67;;
13303;SDS011;6720;51.958;4.540;2022-12-29T13:43:30;8.57;;;4.10;;
13303;SDS011;6720;51.958;4.540;2022-12-29T13:45:59;10.23;;;3.50;;
13303;SDS011;6720;51.958;4.540;2022-12-29T13:48:53;8.40;;;2.97;;
13303;SDS011;6720;51.958;4.540;2022-12-29T13:51:19;6.47;;;2.87;;
13303;SDS011;6720;51.958;4.540;2022-12-29T13:56:59;7.97;;;2.80;;
13303;SDS011;6720;51.958;4.540;2022-12-29T13:59:40;7.13;;;3.13;;
13303;SDS011;6720;51.958;4.540;2022-12-29T14:05:01;10.27;;;3.83;;
13303;SDS011;6720;51.958;4.540;2022-12-29T14:07:29;10.90;;;4.50;;
13303;SDS011;6720;51.958;4.540;2022-12-29T14:10:01;7.67;;;3.50;;
13303;SDS011;6720;51.958;4.540;2022-12-29T14:12:36;9.13;;;3.43;;
13303;SDS011;6720;51.958;4.540;2022-12-29T14:17:35;10.53;;;3.33;;
13303;SDS011;6720;51.958;4.540;2022-12-29T14:20:02;7.17;;;3.27;;
13303;SDS011;6720;51.958;4.540;2022-12-29T14:22:32;12.37;;;4.47;;
13303;SDS011;6720;51.958;4.540;2022-12-29T14:24:58;8.97;;;3.23;;
13303;SDS011;6720;51.958;4.540;2022-12-29T14:29:55;11.30;;;3.60;;
13303;SDS011;6720;51.958;4.540;2022-12-29T14:37:25;7.03;;;2.97;;
13303;SDS011;6720;51.958;4.540;2022-12-29T14:42:48;10.37;;;3.90;;
13303;SDS011;6720;51.958;4.540;2022-12-29T14:47:45;9.77;;;3.30;;
13303;SDS011;6720;51.958;4.540;2022-12-29T14:52:56;10.57;;;3.10;;
13303;SDS011;6720;51.958;4.540;2022-12-29T14:58:06;11.57;;;3.27;;
13303;SDS011;6720;51.958;4.540;2022-12-29T15:00:39;11.57;;;3.03;;
13303;SDS011;6720;51.958;4.540;2022-12-29T15:05:53;9.53;;;3.60;;
13303;SDS011;6720;51.958;4.540;2022-12-29T15:08:22;11.73;;;3.50;;
13303;SDS011;6720;51.958;4.540;2022-12-29T15:11:24;10.47;;;3.20;;
13303;SDS011;6720;51.958;4.540;2022-12-29T15:13:43;10.77;;;3.30;;
13303;SDS011;6720;51.958;4.540;2022-12-29T15:18:53;10.30;;;3.40;;
13303;SDS011;6720;51.958;4.540;2022-12-29T15:21:26;13.27;;;3.40;;
13303;SDS011;6720;51.958;4.540;2022-12-29T15:24:11;11.67;;;3.27;;
13303;SDS011;6720;51.958;4.540;2022-12-29T15:26:38;12.40;;;3.30;;
13303;SDS011;6720;51.958;4.540;2022-12-29T15:29:05;13.33;;;3.30;;
13303;SDS011;6720;51.958;4.540;2022-12-29T15:31:30;10.63;;;3.20;;
13303;SDS011;6720;51.958;4.540;2022-12-29T15:34:08;12.67;;;4.63;;
13303;SDS011;6720;51.958;4.540;2022-12-29T15:36:40;11.50;;;3.97;;
13303;SDS011;6720;51.958;4.540;2022-12-29T15:39:19;9.07;;;3.40;;
13303;SDS011;6720;51.958;4.540;2022-12-29T15:44:48;10.70;;;3.07;;
13303;SDS011;6720;51.958;4.540;2022-12-29T15:47:16;11.07;;;2.90;;
13303;SDS011;6720;51.958;4.540;2022-12-29T15:49:47;9.90;;;2.83;;
13303;SDS011;6720;51.958;4.540;2022-12-29T15:52:17;8.60;;;2.90;;
13303;SDS011;6720;51.958;4.540;2022-12-29T15:54:44;7.53;;;2.70;;
13303;SDS011;6720;51.958;4.540;2022-12-29T15:57:37;9.40;;;3.50;;
13303;SDS011;6720;51.958;4.540;2022-12-29T16:00:03;9.70;;;3.00;;
13303;SDS011;6720;51.958;4.540;2022-12-29T16:02:29;10.93;;;3.13;;
13303;SDS011;6720;51.958;4.540;2022-12-29T16:04:55;7.90;;;3.10;;
13303;SDS011;6720;51.958;4.540;2022-12-29T16:07:25;8.47;;;2.80;;
13303;SDS011;6720;51.958;4.540;2022-12-29T16:09:57;9.47;;;2.90;;
13303;SDS011;6720;51.958;4.540;2022-12-29T16:12:26;9.53;;;2.77;;
13303;SDS011;6720;51.958;4.540;2022-12-29T16:14:56;9.73;;;3.03;;
13303;SDS011;6720;51.958;4.540;2022-12-29T16:17:26;10.10;;;3.37;;
13303;SDS011;6720;51.958;4.540;2022-12-29T16:19:55;5.87;;;3.10;;
13303;SDS011;6720;51.958;4.540;2022-12-29T16:22:59;11.47;;;2.97;;
13303;SDS011;6720;51.958;4.540;2022-12-29T16:25:38;9.73;;;3.43;;
13303;SDS011;6720;51.958;4.540;2022-12-29T16:28:30;9.17;;;2.70;;
13303;SDS011;6720;51.958;4.540;2022-12-29T16:31:04;9.70;;;3.00;;
13303;SDS011;6720;51.958;4.540;2022-12-29T16:33:37;8.47;;;3.43;;
13303;SDS011;6720;51.958;4.540;2022-12-29T16:36:25;10.40;;;3.50;;
13303;SDS011;6720;51.958;4.540;2022-12-29T16:41:50;10.00;;;3.30;;
13303;SDS011;6720;51.958;4.540;2022-12-29T16:44:27;8.13;;;3.00;;
13303;SDS011;6720;51.958;4.540;2022-12-29T16:46:57;10.53;;;3.33;;
13303;SDS011;6720;51.958;4.540;2022-12-29T16:49:26;9.93;;;3.43;;
13303;SDS011;6720;51.958;4.540;2022-12-29T16:51:52;10.63;;;3.43;;
13303;SDS011;6720;51.958;4.540;2022-12-29T16:54:27;8.43;;;2.83;;
13303;SDS011;6720;51.958;4.540;2022-12-29T16:56:57;11.20;;;3.60;;
13303;SDS011;6720;51.958;4.540;2022-12-29T17:01:54;12.30;;;3.10;;
13303;SDS011;6720;51.958;4.540;2022-12-29T17:04:20;9.10;;;2.93;;
13303;SDS011;6720;51.958;4.540;2022-12-29T17:06:46;9.47;;;3.00;;
13303;SDS011;6720;51.958;4.540;2022-12-29T17:09:22;10.27;;;3.37;;
13303;SDS011;6720;51.958;4.540;2022-12-29T17:11:50;9.87;;;3.40;;
13303;SDS011;6720;51.958;4.540;2022-12-29T17:14:26;8.57;;;3.30;;
13303;SDS011;6720;51.958;4.540;2022-12-29T17:16:59;13.77;;;4.77;;
13303;SDS011;6720;51.958;4.540;2022-12-29T17:19:32;9.90;;;3.33;;
13303;SDS011;6720;51.958;4.540;2022-12-29T17:21:59;9.77;;;3.70;;
13303;SDS011;6720;51.958;4.540;2022-12-29T17:24:25;10.73;;;3.00;;
13303;SDS011;6720;51.958;4.540;2022-12-29T17:26:52;10.23;;;4.60;;
13303;SDS011;6720;51.958;4.540;2022-12-29T17:31:57;12.00;;;4.07;;
13303;SDS011;6720;51.958;4.540;2022-12-29T17:34:23;12.27;;;3.03;;
13303;SDS011;6720;51.958;4.540;2022-12-29T17:36:49;10.63;;;3.03;;
13303;SDS011;6720;51.958;4.540;2022-12-29T17:39:15;7.43;;;2.80;;
13303;SDS011;6720;51.958;4.540;2022-12-29T17:41:40;9.90;;;2.97;;
13303;SDS011;6720;51.958;4.540;2022-12-29T17:44:06;14.20;;;3.60;;